Time;durP1;ratioP1;P1;durP2;ratioP2;P2;SDS_P1;SDS_P2;PMS_P1;PMS_P2;Temp;Humidity;BMP_temperature;BMP_pressure;BME280_temperature;BME280_humidity;BME280_pressure;Samples;Min_cycle;Max_cycle;Signal;HPM_P1;HPM_P2
2022/04/04 00:01:39;;;;;;;14.70;6.70;;;;;;;-0.69;67.92;98726.63;220033;1274;25850;-69
2022/04/04 00:06:41;;;;;;;15.70;7.70;;;;;;;-0.73;68.13;98723.04;219978;1274;22562;-69
2022/04/04 00:11:43;;;;;;;12.90;6.90;;;;;;;-0.75;68.13;98717.27;220008;1274;22524;-69
2022/04/04 00:16:48;;;;;;;11.00;5.70;;;;;;;-0.77;68.02;98715.39;219957;1274;25303;-69
2022/04/04 00:21:51;;;;;;;13.40;6.50;;;;;;;-0.78;68.27;98710.99;219580;1277;22574;-70
2022/04/04 00:26:53;;;;;;;11.80;6.60;;;;;;;-0.79;68.00;98710.60;219764;1274;22563;-69
2022/04/04 00:31:55;;;;;;;8.90;5.30;;;;;;;-0.79;67.90;98707.16;221286;1273;24180;-69
2022/04/04 00:36:58;;;;;;;9.00;5.00;;;;;;;-0.82;67.78;98705.20;219703;1274;24162;-70
2022/04/04 00:42:00;;;;;;;8.80;5.20;;;;;;;-0.83;67.89;98706.19;219761;1276;24647;-69
2022/04/04 00:47:03;;;;;;;10.40;5.10;;;;;;;-0.84;68.09;98703.06;220049;1274;24342;-70
2022/04/04 00:52:07;;;;;;;10.50;5.50;;;;;;;-0.84;68.25;98700.84;220431;1274;22571;-70
2022/04/04 00:57:09;;;;;;;11.10;5.20;;;;;;;-0.86;68.13;98698.86;220470;1273;22574;-70
2022/04/04 01:02:19;;;;;;;10.00;6.00;;;;;;;-0.87;68.53;98696.05;220195;1274;22570;-70
2022/04/04 01:07:26;;;;;;;9.40;5.50;;;;;;;-0.89;68.56;98692.27;220565;1274;22616;-69
2022/04/04 01:12:29;;;;;;;10.90;5.40;;;;;;;-0.92;68.71;98697.95;220291;1274;22538;-70
2022/04/04 01:17:31;;;;;;;9.70;5.20;;;;;;;-0.95;68.75;98693.28;220361;1274;22471;-70
2022/04/04 01:22:34;;;;;;;11.80;5.50;;;;;;;-0.97;68.89;98689.67;220299;1274;23834;-70
2022/04/04 01:27:36;;;;;;;9.80;5.40;;;;;;;-1.02;69.01;98684.36;220397;1274;23969;-70
2022/04/04 01:32:39;;;;;;;11.30;5.60;;;;;;;-1.07;68.92;98688.33;219870;1274;22653;-70
2022/04/04 01:37:41;;;;;;;11.60;6.00;;;;;;;-1.10;69.07;98688.43;220335;1274;24319;-69
2022/04/04 01:42:50;;;;;;;12.50;6.20;;;;;;;-1.13;69.09;98678.22;220121;1274;24215;-69
2022/04/04 01:47:52;;;;;;;13.20;7.00;;;;;;;-1.19;68.99;98673.54;220495;1274;22615;-69
2022/04/04 01:53:25;;;;;;;14.40;7.20;;;;;;;-1.25;69.05;98665.56;220360;1274;24261;-70
2022/04/04 01:58:23;;;;;;;13.10;7.20;;;;;;;-1.31;69.31;98663.84;220495;1273;23083;-69
2022/04/04 02:03:25;;;;;;;10.70;6.60;;;;;;;-1.35;69.39;98659.79;220216;1274;22533;-70
2022/04/04 02:08:31;;;;;;;11.20;6.90;;;;;;;-1.41;69.43;98653.64;220340;1274;22564;-70
2022/04/04 02:13:41;;;;;;;12.10;6.80;;;;;;;-1.50;69.34;98649.62;221211;1274;22663;-69
2022/04/04 02:19:11;;;;;;;10.40;6.00;;;;;;;-1.60;69.53;98646.45;221434;1274;23304;-70
2022/04/04 02:24:21;;;;;;;12.30;6.80;;;;;;;-1.68;69.67;98645.45;220380;1273;23003;-70
2022/04/04 02:29:26;;;;;;;11.00;5.90;;;;;;;-1.74;69.77;98639.22;221278;1274;25379;-69
2022/04/04 02:34:29;;;;;;;10.30;6.10;;;;;;;-1.79;69.87;98626.23;220115;1274;22641;-69
2022/04/04 02:39:31;;;;;;;11.70;6.90;;;;;;;-1.84;69.79;98626.27;219870;1274;22567;-70
2022/04/04 02:44:34;;;;;;;10.50;6.50;;;;;;;-1.90;69.89;98626.27;220358;1274;23312;-70
2022/04/04 02:49:36;;;;;;;10.90;6.70;;;;;;;-1.96;69.99;98631.63;220535;1274;23809;-70
2022/04/04 02:54:38;;;;;;;9.60;6.40;;;;;;;-2.02;70.12;98627.18;220311;1274;24289;-69
2022/04/04 02:59:45;;;;;;;10.70;6.40;;;;;;;-2.04;70.56;98631.78;219827;1274;24226;-70
2022/04/04 03:04:55;;;;;;;8.90;6.20;;;;;;;-2.05;71.02;98632.80;221483;1274;23812;-70
2022/04/04 03:10:11;;;;;;;8.70;6.10;;;;;;;-2.06;70.91;98633.49;220471;1273;24315;-69
2022/04/04 03:15:27;;;;;;;11.20;5.50;;;;;;;-2.08;70.70;98636.02;220386;1274;22778;-70
2022/04/04 03:20:31;;;;;;;8.80;5.30;;;;;;;-2.06;70.97;98632.61;220437;1274;24332;-69
2022/04/04 03:25:34;;;;;;;8.60;5.60;;;;;;;-2.01;70.85;98630.25;220135;1274;23822;-69
2022/04/04 03:30:37;;;;;;;7.10;5.60;;;;;;;-1.96;70.87;98626.77;220261;1274;24268;-70
2022/04/04 03:35:39;;;;;;;9.10;5.80;;;;;;;-1.87;70.64;98624.64;220303;1274;24240;-70
2022/04/04 03:40:43;;;;;;;9.10;5.50;;;;;;;-1.77;70.80;98624.09;220198;1274;24845;-69
2022/04/04 03:45:46;;;;;;;8.80;5.90;;;;;;;-1.64;70.64;98623.72;220190;1274;24296;-70
2022/04/04 03:50:51;;;;;;;7.00;5.40;;;;;;;-1.52;70.46;98628.29;220684;1273;24141;-70
2022/04/04 03:55:56;;;;;;;8.10;5.70;;;;;;;-1.37;70.52;98632.30;220205;1274;22526;-69
2022/04/04 04:01:05;;;;;;;7.70;4.70;;;;;;;-1.22;70.36;98629.27;220386;1274;25662;-69
2022/04/04 04:06:14;;;;;;;7.10;4.40;;;;;;;-1.11;69.85;98621.83;220620;1274;22676;-69
2022/04/04 04:11:17;;;;;;;8.20;5.80;;;;;;;-1.06;70.62;98618.55;220323;1274;24200;-70
2022/04/04 04:16:19;;;;;;;8.40;5.30;;;;;;;-1.15;71.71;98610.50;220037;1274;22469;-69
2022/04/04 04:21:22;;;;;;;8.20;6.00;;;;;;;-1.27;72.90;98606.99;220688;1273;24185;-69
2022/04/04 04:26:25;;;;;;;10.90;6.30;;;;;;;-1.36;73.83;98606.23;220484;1272;22463;-70
2022/04/04 04:31:27;;;;;;;10.20;6.30;;;;;;;-1.45;74.47;98611.14;220300;1274;22568;-69
2022/04/04 04:36:33;;;;;;;17.30;8.20;;;;;;;-1.48;74.94;98607.89;220519;1274;22522;-69
2022/04/04 04:41:36;;;;;;;14.60;8.60;;;;;;;-1.50;74.66;98602.00;220224;1274;25139;-69
2022/04/04 04:46:38;;;;;;;19.90;10.20;;;;;;;-1.48;74.69;98595.80;220445;1274;22571;-69
2022/04/04 04:51:42;;;;;;;22.50;10.90;;;;;;;-1.45;74.47;98594.80;220379;1274;22586;-68
2022/04/04 04:56:46;;;;;;;21.70;12.10;;;;;;;-1.40;74.36;98601.06;219851;1274;24178;-69
2022/04/04 05:01:48;;;;;;;15.30;9.70;;;;;;;-1.31;73.66;98604.65;220318;1274;22566;-70
2022/04/04 05:06:57;;;;;;;16.00;9.60;;;;;;;-1.25;73.31;98599.73;220148;1274;22557;-70
2022/04/04 05:11:59;;;;;;;15.70;10.60;;;;;;;-1.22;72.96;98599.85;220123;1274;22605;-70
2022/04/04 05:17:02;;;;;;;15.80;9.60;;;;;;;-1.16;72.74;98599.27;220310;1274;24226;-72
2022/04/04 05:22:17;;;;;;;16.90;9.70;;;;;;;-1.03;72.80;98602.10;220251;1274;25438;-69
2022/04/04 05:27:25;;;;;;;15.40;9.50;;;;;;;-0.85;72.06;98603.30;220428;1271;24365;-70
2022/04/04 05:32:29;;;;;;;15.10;8.40;;;;;;;-0.70;71.61;98603.91;220293;1274;22569;-69
2022/04/04 05:37:34;;;;;;;14.40;8.50;;;;;;;-0.57;71.08;98601.42;219865;1274;25882;-69
2022/04/04 05:42:36;;;;;;;11.80;7.60;;;;;;;-0.44;70.45;98602.20;220278;1274;22651;-71
2022/04/04 05:48:08;;;;;;;13.50;8.20;;;;;;;-0.30;70.06;98604.02;220559;1274;22478;-69
2022/04/04 05:53:11;;;;;;;11.40;7.60;;;;;;;-0.11;69.71;98608.27;222324;1273;22726;-69
2022/04/04 05:58:13;;;;;;;12.70;7.30;;;;;;;0.08;68.65;98611.66;220708;1273;24743;-69
2022/04/04 06:03:15;;;;;;;12.40;7.90;;;;;;;0.26;68.27;98611.38;220370;1273;22563;-69
2022/04/04 06:08:28;;;;;;;11.80;7.00;;;;;;;0.39;66.78;98610.70;221498;1273;22530;-67
2022/04/04 06:13:31;;;;;;;13.40;7.50;;;;;;;0.45;66.41;98610.63;220310;1273;25227;-68
2022/04/04 06:18:34;;;;;;;9.10;5.70;;;;;;;0.58;66.40;98610.05;220377;1273;22580;-68
2022/04/04 06:23:37;;;;;;;9.70;6.10;;;;;;;0.75;65.36;98609.83;220405;1273;22954;-68
2022/04/04 06:28:52;;;;;;;9.10;6.20;;;;;;;0.83;64.69;98610.58;220530;1273;25315;-68
2022/04/04 06:34:08;;;;;;;11.60;6.90;;;;;;;0.97;65.06;98607.59;220451;1273;22837;-69
2022/04/04 06:39:10;;;;;;;10.00;6.10;;;;;;;1.23;64.55;98603.48;220650;1273;22827;-69
2022/04/04 06:44:13;;;;;;;9.90;5.50;;;;;;;1.42;62.90;98609.86;220064;1274;23151;-69
2022/04/04 06:49:16;;;;;;;8.80;5.90;;;;;;;1.43;60.92;98611.52;220141;1273;22582;-70
2022/04/04 06:54:19;;;;;;;8.80;6.10;;;;;;;1.39;61.50;98615.98;220301;1274;22958;-69
2022/04/04 06:59:22;;;;;;;10.00;6.40;;;;;;;1.35;61.17;98612.89;220554;1273;22534;-69
2022/04/04 07:04:25;;;;;;;10.70;6.30;;;;;;;1.34;61.89;98610.91;220526;1273;25380;-69
2022/04/04 07:09:32;;;;;;;11.80;7.10;;;;;;;1.46;62.21;98608.95;220570;1273;22572;-73
2022/04/04 07:14:35;;;;;;;12.80;7.40;;;;;;;1.55;61.73;98607.55;220126;1273;22939;-69
2022/04/04 07:19:40;;;;;;;11.50;7.00;;;;;;;1.63;61.85;98601.95;220312;1274;22581;-70
2022/04/04 07:24:43;;;;;;;12.00;7.40;;;;;;;1.77;60.75;98605.85;220100;1273;598519;-70
2022/04/04 07:29:45;;;;;;;12.60;7.70;;;;;;;1.88;61.12;98608.13;220315;1274;25318;-70
2022/04/04 07:34:49;;;;;;;14.50;7.80;;;;;;;2.01;61.36;98609.06;221901;1273;25244;-71
2022/04/04 07:39:51;;;;;;;11.50;7.30;;;;;;;2.11;61.53;98605.60;221652;1273;22776;-68
2022/04/04 07:44:54;;;;;;;11.00;6.70;;;;;;;2.16;60.88;98597.12;220391;1273;24215;-70
2022/04/04 07:50:43;;;;;;;;;;;;;;;;;;;;;
2022/04/04 07:56:29;;;;;;;10.80;6.00;;;;;;;2.38;60.20;98590.27;220420;1273;22533;-70
2022/04/04 08:01:43;;;;;;;9.60;6.40;;;;;;;2.65;60.46;98587.35;222273;1273;23622;-70
2022/04/04 08:06:59;;;;;;;10.60;6.70;;;;;;;2.93;59.71;98591.95;221844;1273;24128;-70
2022/04/04 08:12:53;;;;;;;9.40;6.60;;;;;;;3.27;59.44;98590.45;221838;1273;23716;-71
2022/04/04 08:17:58;;;;;;;9.00;6.70;;;;;;;3.41;58.32;98584.13;221949;1273;25038;-70
2022/04/04 08:23:12;;;;;;;9.50;6.90;;;;;;;3.53;58.73;98583.16;222018;1273;24798;-69
2022/04/04 08:28:29;;;;;;;10.20;6.00;;;;;;;3.52;57.12;98590.66;220526;1273;22473;-69
2022/04/04 08:33:43;;;;;;;;;;;;;;;;;;;;;
2022/04/04 08:38:56;;;;;;;9.60;6.40;;;;;;;3.28;58.32;98578.50;220417;1273;22472;-70
2022/04/04 08:44:01;;;;;;;9.50;6.90;;;;;;;3.37;58.17;98569.14;220455;1273;22560;-70
2022/04/04 08:49:06;;;;;;;9.20;6.50;;;;;;;3.57;58.80;98562.91;220538;1273;22590;-69
2022/04/04 08:54:09;;;;;;;9.00;7.00;;;;;;;3.86;58.62;98563.11;220425;1273;25525;-69
2022/04/04 08:59:12;;;;;;;9.60;5.90;;;;;;;3.97;57.43;98556.45;220269;1273;22700;-69
2022/04/04 09:04:17;;;;;;;10.40;7.00;;;;;;;4.05;58.12;98548.95;220458;1273;22565;-69
2022/04/04 09:09:25;;;;;;;9.70;6.00;;;;;;;4.23;57.98;98540.08;224808;1263;23311;-69
2022/04/04 09:14:44;;;;;;;7.60;6.00;;;;;;;4.43;57.03;98537.96;218645;1275;24241;-69
2022/04/04 09:20:15;;;;;;;;;;;;;;;;;;;;;
2022/04/04 09:25:45;;;;;;;8.10;6.00;;;;;;;4.73;56.32;98520.73;220365;1274;22569;-70
2022/04/04 09:31:05;;;;;;;6.00;4.50;;;;;;;4.90;56.09;98503.84;220361;1276;22574;-70
2022/04/04 09:36:24;;;;;;;9.20;5.60;;;;;;;5.07;55.86;98498.88;218500;1276;25276;-70
2022/04/04 09:41:33;;;;;;;8.90;6.00;;;;;;;5.30;56.32;98487.06;218597;1276;22620;-70
2022/04/04 09:47:02;;;;;;;8.00;4.60;;;;;;;5.71;55.54;98480.05;220364;1276;22541;-69
2022/04/04 09:52:08;;;;;;;6.30;4.70;;;;;;;5.92;54.01;98472.64;220748;1277;22655;-70
2022/04/04 09:57:28;;;;;;;6.50;4.60;;;;;;;6.16;54.61;98467.67;220216;1276;22546;-70
2022/04/04 10:02:34;;;;;;;5.30;4.00;;;;;;;6.36;53.17;98461.59;220318;1276;22546;-70
2022/04/04 10:07:56;;;;;;;5.90;5.30;;;;;;;6.35;52.42;98447.77;220345;1277;22600;-70
2022/04/04 10:12:59;;;;;;;6.20;4.80;;;;;;;6.43;52.08;98440.30;218346;1277;22576;-70
2022/04/04 10:18:22;;;;;;;4.90;4.20;;;;;;;6.34;52.11;98433.56;218426;1277;22582;-69
2022/04/04 10:23:41;;;;;;;6.00;4.70;;;;;;;6.40;52.08;98425.52;218437;1277;22709;-70
2022/04/04 10:29:13;;;;;;;5.60;4.20;;;;;;;6.40;51.00;98419.02;218666;1276;26645;-69
2022/04/04 10:35:09;;;;;;;5.70;4.20;;;;;;;6.24;50.37;98406.48;218015;1277;26409;-69
2022/04/04 10:41:07;;;;;;;5.50;4.10;;;;;;;6.01;51.04;98401.20;220015;1277;23976;-69
2022/04/04 10:46:15;;;;;;;3.90;3.50;;;;;;;6.16;51.60;98384.64;218509;1276;25256;-70
2022/04/04 10:51:31;;;;;;;4.80;4.00;;;;;;;6.62;52.18;98375.69;218395;1277;22543;-69
2022/04/04 10:57:06;;;;;;;;;;;;;;;;;;;;;
2022/04/04 11:02:35;;;;;;;4.00;3.30;;;;;;;7.28;49.05;98363.53;218305;1276;23038;-70
2022/04/04 11:07:58;;;;;;;3.90;3.50;;;;;;;7.35;48.63;98355.44;218267;1277;22812;-71
2022/04/04 11:13:24;;;;;;;3.50;3.20;;;;;;;7.12;48.76;98352.51;218316;1277;22563;-69
2022/04/04 11:18:54;;;;;;;3.10;2.90;;;;;;;6.80;48.37;98342.77;218680;1277;25368;-69
2022/04/04 11:24:30;;;;;;;3.30;3.00;;;;;;;6.74;48.18;98334.06;218384;1277;25216;-69
2022/04/04 11:29:41;;;;;;;2.80;2.60;;;;;;;6.62;47.35;98329.02;219124;1277;23967;-70
2022/04/04 11:34:45;;;;;;;3.10;2.80;;;;;;;6.46;48.66;98325.39;218625;1277;22913;-69
2022/04/04 11:39:56;;;;;;;3.60;2.90;;;;;;;6.53;48.60;98317.55;218881;1276;22706;-71
2022/04/04 11:45:10;;;;;;;;;;;;;;;;;;;;;
2022/04/04 11:50:30;;;;;;;4.10;3.40;;;;;;;6.58;49.03;98304.22;219322;1276;26608;-70
2022/04/04 11:55:37;;;;;;;3.40;3.10;;;;;;;6.48;48.66;98300.31;220086;1276;24233;-68
2022/04/04 12:01:04;;;;;;;3.70;3.10;;;;;;;6.57;49.68;98292.83;218612;1277;22644;-70
2022/04/04 12:06:08;;;;;;;3.30;3.00;;;;;;;6.92;49.56;98275.92;218768;1277;24346;-69
2022/04/04 12:11:22;;;;;;;3.40;3.10;;;;;;;7.37;49.00;98266.80;218729;1277;22573;-70
2022/04/04 12:16:49;;;;;;;4.00;3.00;;;;;;;7.37;47.59;98256.62;218980;1277;22790;-69
2022/04/04 12:21:53;;;;;;;3.60;3.20;;;;;;;7.16;48.18;98247.59;218810;1276;24954;-69
2022/04/04 12:27:15;;;;;;;3.90;3.30;;;;;;;7.00;46.86;98240.52;218849;1277;22642;-70
2022/04/04 12:32:19;;;;;;;3.20;2.80;;;;;;;6.78;47.38;98228.36;218670;1276;22959;-69
2022/04/04 12:37:40;;;;;;;5.60;3.20;;;;;;;6.68;47.93;98223.36;218963;1276;25785;-69
2022/04/04 12:42:45;;;;;;;7.90;3.30;;;;;;;6.85;47.67;98211.05;218618;1277;22544;-69
2022/04/04 12:47:54;;;;;;;5.40;3.60;;;;;;;7.02;46.86;98194.84;218527;1276;22647;-69
2022/04/04 12:53:03;;;;;;;4.10;3.60;;;;;;;7.18;47.13;98188.48;218854;1277;22531;-68
2022/04/04 12:58:23;;;;;;;3.80;3.40;;;;;;;7.36;45.53;98183.03;218430;1277;22664;-69
2022/04/04 13:03:29;;;;;;;5.90;4.40;;;;;;;7.46;45.03;98164.92;220249;1277;23141;-69
2022/04/04 13:08:33;;;;;;;4.90;3.90;;;;;;;7.53;45.28;98154.84;218490;1277;23624;-69
2022/04/04 13:14:10;;;;;;;5.60;3.80;;;;;;;7.71;44.72;98145.41;218641;1277;22641;-68
2022/04/04 13:19:14;;;;;;;3.30;3.00;;;;;;;7.80;43.68;98134.06;218170;1276;25413;-69
2022/04/04 13:24:18;;;;;;;3.60;3.00;;;;;;;7.78;43.45;98125.38;218595;1277;25241;-71
2022/04/04 13:29:21;;;;;;;3.40;3.00;;;;;;;7.66;42.94;98107.60;218597;1277;22561;-70
2022/04/04 13:34:23;;;;;;;3.90;2.70;;;;;;;7.80;43.89;98096.30;218546;1277;22533;-69
2022/04/04 13:39:26;;;;;;;4.60;3.20;;;;;;;7.83;42.21;98087.88;218736;1277;22538;-68
2022/04/04 13:44:31;;;;;;;4.50;3.50;;;;;;;7.52;40.76;98083.29;218591;1277;22605;-69
2022/04/04 13:49:34;;;;;;;4.80;3.30;;;;;;;7.21;42.56;98069.54;218530;1276;22591;-69
2022/04/04 13:54:36;;;;;;;3.80;3.00;;;;;;;7.15;42.86;98061.35;218613;1277;24440;-68
2022/04/04 13:59:40;;;;;;;5.50;4.10;;;;;;;7.16;42.78;98050.48;218289;1276;25380;-69
2022/04/04 14:04:46;;;;;;;7.00;3.80;;;;;;;7.16;43.15;98036.03;218692;1276;24265;-70
2022/04/04 14:09:51;;;;;;;3.50;3.20;;;;;;;7.20;42.18;98023.89;218971;1277;25319;-68
2022/04/04 14:14:54;;;;;;;5.30;3.50;;;;;;;7.34;41.30;98005.97;219153;1277;24256;-69
2022/04/04 14:19:58;;;;;;;3.60;3.10;;;;;;;7.43;40.40;97998.19;218897;1277;22560;-69
2022/04/04 14:25:09;;;;;;;4.30;3.50;;;;;;;7.33;40.33;97987.60;218853;1277;22575;-70
2022/04/04 14:30:25;;;;;;;4.00;3.50;;;;;;;7.31;39.97;97976.86;218867;1277;25270;-69
2022/04/04 14:35:31;;;;;;;4.80;3.40;;;;;;;7.12;39.71;97960.69;218903;1277;24254;-69
2022/04/04 14:40:45;;;;;;;4.20;3.20;;;;;;;6.92;40.62;97951.23;218899;1277;26376;-69
2022/04/04 14:45:49;;;;;;;4.30;3.00;;;;;;;6.80;40.31;97937.79;219037;1277;26395;-70
2022/04/04 14:51:00;;;;;;;3.60;3.10;;;;;;;6.72;39.20;97924.20;219065;1277;22563;-68
2022/04/04 14:56:05;;;;;;;5.60;3.30;;;;;;;6.64;40.08;97914.48;218921;1276;22560;-69
2022/04/04 15:01:13;;;;;;;3.10;2.40;;;;;;;6.62;40.21;97908.23;218966;1277;22550;-70
2022/04/04 15:06:17;;;;;;;5.00;2.80;;;;;;;6.61;39.88;97895.31;218813;1277;22694;-68
2022/04/04 15:11:20;;;;;;;3.10;2.60;;;;;;;6.63;39.93;97884.91;218784;1277;24368;-70
2022/04/04 15:16:23;;;;;;;4.70;3.20;;;;;;;6.60;39.52;97878.40;218744;1277;22612;-70
2022/04/04 15:21:28;;;;;;;2.90;2.70;;;;;;;6.69;41.12;97862.45;218691;1277;24081;-69
2022/04/04 15:26:35;;;;;;;4.10;3.30;;;;;;;6.85;39.59;97855.31;218943;1277;22559;-69
2022/04/04 15:31:39;;;;;;;4.50;2.60;;;;;;;6.85;40.16;97844.83;218384;1276;22554;-69
2022/04/04 15:36:44;;;;;;;3.70;2.90;;;;;;;6.86;39.54;97838.27;218782;1276;25298;-69
2022/04/04 15:41:51;;;;;;;3.70;2.80;;;;;;;6.78;39.15;97830.54;218777;1276;23072;-69
2022/04/04 15:46:55;;;;;;;4.80;3.30;;;;;;;6.74;38.91;97824.42;218782;1276;22537;-69
2022/04/04 15:51:59;;;;;;;3.80;2.80;;;;;;;6.65;38.84;97814.19;218717;1277;24214;-69
2022/04/04 15:57:03;;;;;;;9.70;2.80;;;;;;;6.51;38.55;97799.46;218898;1277;25318;-70
2022/04/04 16:02:07;;;;;;;4.60;2.80;;;;;;;6.36;38.03;97794.82;218856;1276;25409;-68
2022/04/04 16:07:12;;;;;;;3.90;2.90;;;;;;;6.22;39.00;97787.42;218620;1277;22637;-70
2022/04/04 16:12:27;;;;;;;4.50;2.90;;;;;;;6.11;39.23;97775.52;218855;1277;22544;-69
2022/04/04 16:17:33;;;;;;;4.20;3.20;;;;;;;5.96;38.98;97762.69;218918;1277;24374;-69
2022/04/04 16:22:38;;;;;;;4.30;3.50;;;;;;;5.83;39.94;97762.61;218891;1276;24404;-68
2022/04/04 16:27:41;;;;;;;4.80;3.40;;;;;;;5.73;40.46;97753.89;218742;1277;24167;-72
2022/04/04 16:32:44;;;;;;;4.40;3.20;;;;;;;5.62;39.87;97740.17;218853;1276;24257;-68
2022/04/04 16:37:50;;;;;;;5.60;3.30;;;;;;;5.53;40.02;97728.48;218661;1277;24711;-69
2022/04/04 16:42:53;;;;;;;6.30;4.60;;;;;;;5.42;40.45;97724.43;218756;1276;24252;-69
2022/04/04 16:47:59;;;;;;;4.80;3.30;;;;;;;5.30;40.24;97716.58;218880;1276;22559;-69
2022/04/04 16:53:06;;;;;;;5.20;3.20;;;;;;;5.18;40.25;97710.77;218714;1277;25252;-68
2022/04/04 16:58:10;;;;;;;7.80;4.80;;;;;;;5.07;40.86;97697.22;218730;1277;24257;-69
2022/04/04 17:03:18;;;;;;;5.80;3.50;;;;;;;4.95;40.92;97685.75;219030;1277;24252;-70
2022/04/04 17:08:27;;;;;;;5.90;3.90;;;;;;;4.86;41.20;97675.20;218957;1277;24266;-68
2022/04/04 17:13:30;;;;;;;4.80;3.60;;;;;;;4.78;41.41;97672.04;218834;1277;25477;-68
2022/04/04 17:18:44;;;;;;;6.90;4.10;;;;;;;4.72;41.48;97664.59;218613;1277;24311;-68
2022/04/04 17:23:47;;;;;;;6.30;4.30;;;;;;;4.70;41.80;97659.84;218885;1277;24299;-68
2022/04/04 17:28:49;;;;;;;6.20;4.70;;;;;;;4.69;41.96;97651.77;218860;1276;22567;-69
2022/04/04 17:33:52;;;;;;;5.70;4.10;;;;;;;4.66;42.76;97650.04;218753;1277;22573;-70
2022/04/04 17:38:58;;;;;;;7.40;4.30;;;;;;;4.65;42.73;97647.35;219825;1277;24274;-68
2022/04/04 17:44:10;;;;;;;8.00;4.90;;;;;;;4.66;43.25;97641.34;218744;1277;23713;-70
2022/04/04 17:49:16;;;;;;;9.30;5.60;;;;;;;4.65;43.65;97634.94;218718;1277;22576;-69
2022/04/04 17:54:34;;;;;;;7.10;4.90;;;;;;;4.66;43.97;97632.86;218804;1276;25510;-70
2022/04/04 17:59:37;;;;;;;8.50;4.90;;;;;;;4.65;44.15;97630.42;219125;1277;24285;-69
2022/04/04 18:04:40;;;;;;;7.70;5.50;;;;;;;4.63;44.75;97636.11;218720;1277;22568;-69
2022/04/04 18:10:12;;;;;;;9.70;5.00;;;;;;;4.61;45.16;97635.86;218725;1278;22536;-69
2022/04/04 18:15:47;;;;;;;8.80;5.40;;;;;;;4.58;45.40;97628.13;218905;1277;22535;-69
2022/04/04 18:21:09;;;;;;;;;;;;;;;;;;;;;
2022/04/04 18:26:56;;;;;;;8.80;6.00;;;;;;;4.54;45.62;97613.15;218435;1277;22550;-68
2022/04/04 18:32:22;;;;;;;;;;;;;;;;;;;;;
2022/04/04 18:37:37;;;;;;;8.90;5.40;;;;;;;4.56;46.23;97607.52;218518;1277;23337;-68
2022/04/04 18:42:54;;;;;;;7.10;4.70;;;;;;;4.60;46.38;97601.28;218652;1277;22566;-68
2022/04/04 18:48:08;;;;;;;;;;;;;;;;;;;;;
2022/04/04 18:53:30;;;;;;;8.90;5.90;;;;;;;4.67;46.57;97580.85;218481;1277;23765;-68
2022/04/04 18:58:35;;;;;;;10.10;6.20;;;;;;;4.68;47.07;97577.45;219465;1276;25426;-70
2022/04/04 19:03:38;;;;;;;5.10;4.50;;;;;;;4.71;46.76;97567.81;219366;1276;22566;-68
2022/04/04 19:08:46;;;;;;;8.90;5.20;;;;;;;4.77;46.87;97563.89;218638;1277;25468;-69
2022/04/04 19:13:49;;;;;;;8.50;6.30;;;;;;;4.78;47.01;97552.80;218712;1276;22637;-70
2022/04/04 19:18:53;;;;;;;10.50;5.90;;;;;;;4.78;47.06;97550.14;219586;1276;22631;-69
2022/04/04 19:24:00;;;;;;;7.50;5.50;;;;;;;4.78;47.06;97557.56;218467;1276;219764;-68
2022/04/04 19:29:04;;;;;;;8.00;5.50;;;;;;;4.78;47.33;97553.01;218415;1276;22568;-69
2022/04/04 19:34:08;;;;;;;7.10;4.70;;;;;;;4.78;47.60;97551.35;218982;1276;23218;-68
2022/04/04 19:39:11;;;;;;;8.80;5.30;;;;;;;4.81;47.27;97554.25;219018;1276;25383;-68
2022/04/04 19:44:13;;;;;;;9.60;6.10;;;;;;;4.82;47.58;97553.55;218669;1277;25598;-68
2022/04/04 19:49:16;;;;;;;7.50;5.50;;;;;;;4.81;47.67;97557.28;218852;1277;22539;-69
2022/04/04 19:54:18;;;;;;;6.00;5.00;;;;;;;4.79;48.00;97559.30;218820;1277;24263;-68
2022/04/04 19:59:21;;;;;;;6.70;4.90;;;;;;;4.76;48.14;97555.56;218820;1276;22626;-69
2022/04/04 20:04:24;;;;;;;6.20;4.50;;;;;;;4.74;48.40;97558.34;218864;1277;24196;-69
2022/04/04 20:09:27;;;;;;;6.60;5.60;;;;;;;4.71;48.75;97551.63;219351;1277;23805;-67
2022/04/04 20:14:32;;;;;;;5.70;4.70;;;;;;;4.70;48.58;97549.52;218917;1277;22722;-68
2022/04/04 20:19:36;;;;;;;5.50;4.50;;;;;;;4.69;48.66;97543.58;218921;1278;22592;-69
2022/04/04 20:24:39;;;;;;;5.60;4.30;;;;;;;4.67;48.90;97537.08;218935;1277;22619;-67
2022/04/04 20:29:44;;;;;;;5.10;4.30;;;;;;;4.66;48.82;97538.67;218855;1277;22629;-68
2022/04/04 20:34:46;;;;;;;6.10;4.30;;;;;;;4.64;49.56;97537.11;218842;1277;22550;-68
2022/04/04 20:40:15;;;;;;;6.30;4.60;;;;;;;4.60;49.71;97530.24;219095;1276;24118;-67
2022/04/04 20:45:23;;;;;;;5.90;4.50;;;;;;;4.57;49.75;97524.06;218968;1277;22562;-68
2022/04/04 20:50:27;;;;;;;5.70;4.30;;;;;;;4.55;50.21;97522.66;218939;1278;22867;-67
2022/04/04 20:55:31;;;;;;;5.80;4.80;;;;;;;4.50;50.32;97510.29;218774;1278;22811;-69
2022/04/04 21:00:37;;;;;;;6.20;4.30;;;;;;;4.50;50.35;97502.55;218931;1277;22562;-68
2022/04/04 21:05:47;;;;;;;5.60;4.40;;;;;;;4.48;50.49;97495.98;219041;1278;22559;-68
2022/04/04 21:10:51;;;;;;;5.90;3.90;;;;;;;4.45;50.57;97482.70;218974;1277;25457;-68
2022/04/04 21:15:57;;;;;;;6.40;5.00;;;;;;;4.44;50.53;97473.05;218912;1278;22732;-68
2022/04/04 21:21:20;;;;;;;7.20;5.20;;;;;;;4.45;50.60;97469.55;218922;1277;25303;-67
2022/04/04 21:26:22;;;;;;;5.80;4.50;;;;;;;4.45;50.75;97466.16;218725;1278;26525;-68
2022/04/04 21:31:28;;;;;;;5.50;4.00;;;;;;;4.45;50.66;97460.85;218790;1278;25257;-68
2022/04/04 21:36:30;;;;;;;5.00;4.00;;;;;;;4.45;50.47;97458.30;218601;1277;22570;-68
2022/04/04 21:41:32;;;;;;;6.50;4.70;;;;;;;4.48;50.36;97449.89;218643;1278;22708;-68
2022/04/04 21:46:34;;;;;;;6.40;3.80;;;;;;;4.48;50.41;97452.80;218550;1277;22768;-68
2022/04/04 21:51:37;;;;;;;5.00;4.00;;;;;;;4.45;51.01;97457.83;218465;1277;22569;-68
2022/04/04 21:56:39;;;;;;;5.20;3.90;;;;;;;4.35;51.58;97452.14;218684;1277;22573;-67
2022/04/04 22:01:42;;;;;;;6.40;4.30;;;;;;;4.26;52.42;97450.20;218841;1277;22625;-67
2022/04/04 22:06:44;;;;;;;6.00;4.10;;;;;;;4.14;53.78;97441.46;218762;1277;22544;-68
2022/04/04 22:11:48;;;;;;;5.50;4.00;;;;;;;4.02;55.24;97439.44;218621;1276;24201;-67
2022/04/04 22:16:50;;;;;;;4.10;3.10;;;;;;;3.87;57.18;97440.68;218478;1277;24584;-67
2022/04/04 22:21:53;;;;;;;4.60;4.10;;;;;;;3.64;61.19;97438.30;218554;1277;23088;-66
2022/04/04 22:27:00;;;;;;;8.10;3.90;;;;;;;3.44;62.38;97440.55;218684;1277;22579;-68
2022/04/04 22:32:03;;;;;;;7.30;5.30;;;;;;;3.32;62.25;97431.89;218505;1277;22707;-68
2022/04/04 22:37:06;;;;;;;6.70;4.40;;;;;;;3.24;62.59;97430.42;218502;1277;22557;-67
2022/04/04 22:42:08;;;;;;;7.30;4.20;;;;;;;3.18;63.20;97423.95;218753;1277;22722;-67
2022/04/04 22:47:10;;;;;;;7.10;4.40;;;;;;;3.14;64.52;97421.70;218843;1277;25261;-68
2022/04/04 22:52:14;;;;;;;6.30;4.40;;;;;;;3.05;65.32;97414.23;218641;1277;22704;-67
2022/04/04 22:57:16;;;;;;;6.60;5.20;;;;;;;2.96;66.33;97410.58;218665;1276;24285;-67
2022/04/04 23:02:19;;;;;;;6.10;4.50;;;;;;;2.88;67.50;97408.87;218503;1276;24404;-67
2022/04/04 23:07:22;;;;;;;6.10;4.90;;;;;;;2.82;67.57;97405.52;218870;1277;25252;-68
2022/04/04 23:12:24;;;;;;;5.60;4.60;;;;;;;2.79;68.47;97403.41;218804;1277;22567;-68
2022/04/04 23:17:27;;;;;;;6.80;4.40;;;;;;;2.77;68.80;97402.93;218664;1277;24826;-68
2022/04/04 23:22:30;;;;;;;5.90;4.30;;;;;;;2.72;69.87;97406.02;218876;1277;22571;-68
2022/04/04 23:27:32;;;;;;;6.20;5.00;;;;;;;2.62;72.63;97404.20;218676;1277;24373;-67
2022/04/04 23:32:35;;;;;;;5.50;4.10;;;;;;;2.49;72.83;97399.27;218501;1276;22734;-68
2022/04/04 23:37:38;;;;;;;7.00;5.10;;;;;;;2.36;73.84;97398.63;219068;1277;24343;-68
2022/04/04 23:42:40;;;;;;;6.20;5.00;;;;;;;2.25;75.67;97390.88;218862;1276;25373;-68
2022/04/04 23:47:43;;;;;;;6.70;5.20;;;;;;;2.16;74.88;97381.70;218892;1277;22579;-68
2022/04/04 23:52:45;;;;;;;7.40;5.70;;;;;;;2.04;76.75;97379.72;218736;1277;24308;-67
2022/04/04 23:57:47;;;;;;;6.20;5.00;;;;;;;1.89;77.60;97368.96;218578;1277;22770;-67
